Time;durP1;ratioP1;P1;durP2;ratioP2;P2;SDS_P1;SDS_P2;PMS_P1;PMS_P2;Temp;Humidity;BMP_temperature;BMP_pressure;BME280_temperature;BME280_humidity;BME280_pressure;Samples;Min_cycle;Max_cycle;Signal;HPM_P1;HPM_P2
2020/12/03 00:00:30;;;;;;;63.53;26.40;;;;;;;-4.58;82.21;100253.94;2164587;81;21152;-80
2020/12/03 00:03:46;;;;;;;81.10;34.00;;;;;;;-4.57;82.32;100258.20;2162348;81;21524;-79
2020/12/03 00:06:55;;;;;;;62.10;26.33;;;;;;;-4.61;82.30;100249.36;2162323;81;21065;-78
2020/12/03 00:09:57;;;;;;;72.53;30.27;;;;;;;-4.69;82.35;100235.44;2160044;81;21113;-78
2020/12/03 00:13:18;;;;;;;74.73;33.60;;;;;;;-4.75;82.43;100238.30;2164740;81;21072;-79
2020/12/03 00:16:21;;;;;;;74.27;30.63;;;;;;;-4.82;82.44;100224.77;2134007;81;21106;-82
2020/12/03 00:19:25;;;;;;;77.10;34.60;;;;;;;-4.85;82.54;100212.41;2120907;82;21157;-81
2020/12/03 00:22:27;;;;;;;79.27;36.13;;;;;;;-4.87;82.50;100206.45;2122920;82;21549;-80
2020/12/03 00:25:28;;;;;;;86.47;36.87;;;;;;;-4.88;82.47;100198.31;2123975;82;21169;-81
2020/12/03 00:28:32;;;;;;;67.90;28.07;;;;;;;-4.88;82.44;100195.27;2122128;82;21084;-79
2020/12/03 00:31:34;;;;;;;81.73;35.40;;;;;;;-4.85;82.53;100195.59;2120562;82;21117;-82
2020/12/03 00:34:35;;;;;;;60.97;25.67;;;;;;;-4.86;82.43;100197.80;2121999;82;21121;-77
2020/12/03 00:37:37;;;;;;;87.47;38.60;;;;;;;-4.85;82.49;100199.47;2124581;82;21132;-84
2020/12/03 00:40:39;;;;;;;78.30;37.07;;;;;;;-4.85;82.39;100207.23;2118904;82;21181;-83
2020/12/03 00:43:41;;;;;;;81.33;35.90;;;;;;;-4.80;82.46;100197.07;2124594;82;21144;-82
2020/12/03 00:46:42;;;;;;;87.87;38.50;;;;;;;-4.76;82.40;100185.69;2118929;82;21594;-80
2020/12/03 00:49:44;;;;;;;86.70;35.87;;;;;;;-4.73;82.39;100184.68;2123782;82;21153;-82
2020/12/03 00:52:46;;;;;;;93.10;37.37;;;;;;;-4.76;82.43;100175.33;2124852;82;21125;-78
2020/12/03 00:55:48;;;;;;;83.77;34.60;;;;;;;-4.78;82.49;100182.31;2117793;82;21597;-80
2020/12/03 00:58:51;;;;;;;88.37;37.43;;;;;;;-4.81;82.47;100190.68;2122632;82;21153;-80
2020/12/03 01:01:52;;;;;;;97.57;39.93;;;;;;;-4.86;82.54;100191.33;2121896;82;21122;-81
2020/12/03 01:04:54;;;;;;;86.30;38.30;;;;;;;-4.89;82.65;100189.72;2124564;82;21097;-81
2020/12/03 01:07:55;;;;;;;85.33;37.63;;;;;;;-4.90;82.62;100189.77;2121474;82;21185;-80
2020/12/03 01:10:57;;;;;;;71.73;30.67;;;;;;;-4.88;82.67;100176.31;2124492;82;21109;-80
2020/12/03 01:13:58;;;;;;;89.80;38.17;;;;;;;-4.87;82.70;100170.22;2124052;82;21074;-81
2020/12/03 01:17:09;;;;;;;83.50;38.27;;;;;;;-4.83;82.65;100179.55;2117049;82;21522;-79
2020/12/03 01:20:15;;;;;;;81.97;39.40;;;;;;;-4.83;82.67;100176.95;2120924;82;21157;-80
2020/12/03 01:23:17;;;;;;;75.37;33.13;;;;;;;-4.79;82.65;100171.55;2121877;82;21085;-80
2020/12/03 01:26:19;;;;;;;77.80;34.03;;;;;;;-4.74;82.68;100171.36;2120849;82;21776;-83
2020/12/03 01:29:22;;;;;;;81.33;36.23;;;;;;;-4.71;82.57;100160.03;2120985;82;21195;-80
2020/12/03 01:32:24;;;;;;;72.60;27.57;;;;;;;-4.74;82.39;100157.95;2125817;82;21085;-81
2020/12/03 01:35:25;;;;;;;84.47;34.57;;;;;;;-4.78;82.43;100155.13;2118544;82;21251;-82
2020/12/03 01:38:26;;;;;;;83.53;37.03;;;;;;;-4.81;82.41;100151.85;2117836;82;21161;-81
2020/12/03 01:41:28;;;;;;;84.97;38.30;;;;;;;-4.77;82.61;100143.02;2126133;82;21121;-80
2020/12/03 01:44:49;;;;;;;84.93;37.87;;;;;;;-4.71;82.72;100138.86;2115492;82;21182;-82
2020/12/03 01:47:50;;;;;;;;;;;;;;;-4.65;82.66;100128.22;2124321;82;21624;-81
2020/12/03 01:50:52;;;;;;;;;;;;;;;-4.59;82.59;100122.78;2130535;82;20196;-80
2020/12/03 01:53:57;;;;;;;81.72;38.23;;;;;;;-4.52;82.57;100120.28;2122418;82;20233;-83
2020/12/03 01:57:21;;;;;;;88.20;37.10;;;;;;;-4.43;82.52;100116.42;2124943;82;21180;-82
2020/12/03 02:00:23;;;;;;;85.60;37.40;;;;;;;-4.45;82.26;100112.22;2121872;82;21530;-79
2020/12/03 02:03:24;;;;;;;80.37;36.63;;;;;;;-4.44;82.29;100105.69;2118017;82;21517;-79
2020/12/03 02:06:31;;;;;;;83.80;37.33;;;;;;;-4.42;82.12;100103.87;2119799;82;21157;-82
2020/12/03 02:09:32;;;;;;;85.13;38.03;;;;;;;-4.41;82.08;100099.52;2114940;82;21117;-85
2020/12/03 02:12:34;;;;;;;87.60;39.87;;;;;;;-4.40;82.10;100094.71;2131775;82;21546;-84
2020/12/03 02:15:36;;;;;;;89.10;38.83;;;;;;;-4.39;82.09;100086.88;2122851;81;21144;-82
2020/12/03 02:18:37;;;;;;;90.10;38.97;;;;;;;-4.38;81.92;100090.31;2125895;82;21145;-79
2020/12/03 02:21:42;;;;;;;92.67;38.63;;;;;;;-4.41;81.86;100079.63;2122640;82;21161;-80
2020/12/03 02:24:43;;;;;;;86.30;37.97;;;;;;;-4.41;81.86;100081.39;2114459;82;21153;-81
2020/12/03 02:27:45;;;;;;;64.17;28.90;;;;;;;-4.41;81.84;100075.75;2123019;82;21177;-80
2020/12/03 02:30:46;;;;;;;87.67;38.93;;;;;;;-4.34;81.89;100077.58;2117115;82;21085;-80
2020/12/03 02:33:47;;;;;;;86.97;37.93;;;;;;;-4.37;81.82;100075.14;2121754;82;21049;-83
2020/12/03 02:36:57;;;;;;;93.57;39.73;;;;;;;-4.33;81.84;100065.86;2119312;82;21140;-81
2020/12/03 02:40:00;;;;;;;69.42;32.25;;;;;;;-4.34;81.75;100068.05;2124417;82;21774;-79
2020/12/03 02:43:01;;;;;;;91.27;38.50;;;;;;;-4.31;81.83;100067.06;2123155;82;21149;-81
2020/12/03 02:46:03;;;;;;;80.20;35.67;;;;;;;-4.30;81.66;100064.88;2120438;82;21112;-81
2020/12/03 02:49:05;;;;;;;84.83;36.80;;;;;;;-4.36;81.52;100065.17;2120236;82;21500;-82
2020/12/03 02:52:07;;;;;;;95.17;39.43;;;;;;;-4.40;81.53;100055.86;2129165;82;21533;-79
2020/12/03 02:55:09;;;;;;;81.93;33.80;;;;;;;-4.38;81.69;100055.34;2128101;83;21176;-82
2020/12/03 02:58:11;;;;;;;93.80;39.77;;;;;;;-4.38;81.58;100052.28;2124583;82;21137;-77
2020/12/03 03:01:12;;;;;;;91.87;41.03;;;;;;;-4.40;81.48;100055.40;2121490;82;21121;-81
2020/12/03 03:04:13;;;;;;;94.23;41.53;;;;;;;-4.40;81.52;100053.27;2116954;82;21129;-80
2020/12/03 03:07:15;;;;;;;97.67;41.00;;;;;;;-4.42;81.50;100052.49;2122177;82;21169;-80
2020/12/03 03:10:21;;;;;;;102.47;42.30;;;;;;;-4.43;81.49;100049.07;2122477;82;21101;-78
2020/12/03 03:13:20;;;;;;;96.80;39.17;;;;;;;-4.38;81.66;100051.45;2112820;82;21208;-80
2020/12/03 03:16:21;;;;;;;94.93;40.20;;;;;;;-4.38;81.48;100063.11;2125765;81;21121;-82
2020/12/03 03:19:23;;;;;;;95.67;41.83;;;;;;;-4.36;81.48;100058.70;2114323;82;21097;-81
2020/12/03 03:22:25;;;;;;;98.80;41.97;;;;;;;-4.31;81.71;100054.98;2125057;82;21073;-81
2020/12/03 03:25:26;;;;;;;90.33;38.77;;;;;;;-4.25;81.60;100052.55;2120059;82;21172;-79
2020/12/03 03:28:28;;;;;;;103.07;43.10;;;;;;;-4.20;81.49;100057.02;2130337;82;21203;-83
2020/12/03 03:31:29;;;;;;;97.73;41.90;;;;;;;-4.17;81.40;100054.74;2118756;82;21577;-78
2020/12/03 03:34:30;;;;;;;99.90;41.63;;;;;;;-4.21;81.27;100050.17;2121197;82;21204;-77
2020/12/03 03:37:33;;;;;;;94.10;41.53;;;;;;;-4.22;81.21;100042.46;2119068;82;21113;-80
2020/12/03 03:40:35;;;;;;;85.90;35.10;;;;;;;-4.21;81.38;100032.50;2122038;82;21089;-84
2020/12/03 03:43:36;;;;;;;89.80;37.77;;;;;;;-4.17;81.40;100024.48;2119493;82;21141;-79
2020/12/03 03:46:38;;;;;;;97.70;42.37;;;;;;;-4.15;81.33;100024.42;2122644;82;21153;-78
2020/12/03 03:49:39;;;;;;;102.60;44.07;;;;;;;-4.17;81.18;100033.55;2122230;82;21156;-82
2020/12/03 03:52:40;;;;;;;101.93;43.53;;;;;;;-4.21;81.17;100025.56;2115902;82;21486;-80
2020/12/03 03:55:42;;;;;;;104.70;43.03;;;;;;;-4.21;81.27;100028.16;2123009;82;21085;-81
2020/12/03 03:58:43;;;;;;;98.90;42.47;;;;;;;-4.22;81.21;100022.59;2120209;82;21160;-79
2020/12/03 04:01:45;;;;;;;98.20;41.90;;;;;;;-4.20;81.37;100018.62;2125938;82;21156;-79
2020/12/03 04:04:48;;;;;;;104.50;44.97;;;;;;;-4.17;81.30;100005.05;2120236;82;21061;-80
2020/12/03 04:07:50;;;;;;;89.40;34.90;;;;;;;-4.18;81.23;99996.91;2100451;83;21578;-78
2020/12/03 04:10:52;;;;;;;101.47;44.03;;;;;;;-4.18;81.23;99995.61;2121522;82;21532;-82
2020/12/03 04:13:53;;;;;;;104.33;42.70;;;;;;;-4.18;81.17;99993.02;2117332;82;21244;-80
2020/12/03 04:16:55;;;;;;;86.23;35.93;;;;;;;-4.18;81.17;99980.06;2131616;82;21099;-79
2020/12/03 04:19:57;;;;;;;106.13;42.77;;;;;;;-4.18;81.28;99973.58;2140308;82;21941;-80
2020/12/03 04:22:59;;;;;;;99.03;42.13;;;;;;;-4.17;81.25;99971.83;2140221;82;21093;-79
2020/12/03 04:26:01;;;;;;;90.83;36.33;;;;;;;-4.15;81.24;99955.28;2143505;82;21097;-79
2020/12/03 04:29:02;;;;;;;85.87;34.97;;;;;;;-4.13;81.14;99949.58;2143185;82;21502;-81
2020/12/03 04:32:04;;;;;;;103.40;41.83;;;;;;;-4.14;81.09;99941.86;2141124;82;21057;-80
2020/12/03 04:35:08;;;;;;;104.63;43.93;;;;;;;-4.13;81.24;99935.32;2142722;82;21126;-82
2020/12/03 04:38:11;;;;;;;96.37;37.47;;;;;;;-4.12;81.06;99943.93;2146185;82;21114;-79
2020/12/03 04:41:12;;;;;;;103.13;44.30;;;;;;;-4.12;81.03;99950.41;2142332;82;21149;-81
2020/12/03 04:44:22;;;;;;;92.70;39.50;;;;;;;-4.15;81.11;99951.40;2136942;82;21148;-79
2020/12/03 04:47:51;;;;;;;91.93;40.13;;;;;;;-4.07;81.31;99953.14;2146560;81;21050;-78
2020/12/03 04:51:34;;;;;;;100.87;44.23;;;;;;;-4.02;81.20;99957.27;2143707;82;21546;-79
2020/12/03 04:54:40;;;;;;;94.87;41.83;;;;;;;-3.96;81.30;99951.30;2143519;81;21185;-79
2020/12/03 04:58:04;;;;;;;109.43;45.23;;;;;;;-3.93;81.10;99947.72;2141766;82;21505;-79
2020/12/03 05:01:43;;;;;;;87.90;37.57;;;;;;;-3.92;81.05;99953.27;2144632;82;21156;-79
2020/12/03 05:05:16;;;;;;;108.50;45.80;;;;;;;-3.88;81.04;99950.92;2147839;82;21113;-79
2020/12/03 05:08:45;;;;;;;97.43;41.40;;;;;;;-3.85;81.07;99940.39;2142918;82;21057;-79
2020/12/03 05:11:51;;;;;;;105.37;44.20;;;;;;;-3.81;80.96;99934.11;2143381;81;21486;-80
2020/12/03 05:14:58;;;;;;;114.63;46.77;;;;;;;-3.82;80.90;99933.75;2139966;82;21537;-79
2020/12/03 05:18:31;;;;;;;112.17;46.23;;;;;;;-3.82;80.87;99919.95;2121639;82;21161;-81
2020/12/03 05:21:33;;;;;;;116.23;47.17;;;;;;;-3.82;80.83;99914.30;2123372;82;21632;-79
2020/12/03 05:24:35;;;;;;;107.07;43.87;;;;;;;-3.84;80.61;99920.02;2125153;82;21089;-81
2020/12/03 05:27:36;;;;;;;104.93;44.57;;;;;;;-3.84;80.65;99914.37;2120715;82;21089;-79
2020/12/03 05:30:42;;;;;;;115.47;48.53;;;;;;;-3.84;80.78;99916.13;2121583;82;21169;-81
2020/12/03 05:33:45;;;;;;;106.23;46.40;;;;;;;-3.81;80.86;99908.19;2121331;82;21100;-80
2020/12/03 05:37:00;;;;;;;106.93;45.63;;;;;;;-3.78;80.66;99904.59;2122050;82;21155;-81
2020/12/03 05:40:01;;;;;;;106.00;39.78;;;;;;;-3.77;80.71;99904.53;2094204;82;21168;-77
2020/12/03 05:43:03;;;;;;;102.50;44.15;;;;;;;-3.75;80.45;99899.25;2120300;82;21224;-78
2020/12/03 05:46:05;;;;;;;116.28;45.98;;;;;;;-3.77;80.41;99903.23;2119339;82;21173;-81
2020/12/03 05:49:07;;;;;;;109.60;44.63;;;;;;;-3.74;80.54;99912.14;2114515;82;21184;-80
2020/12/03 05:52:22;;;;;;;101.07;44.17;;;;;;;-3.76;80.53;99910.08;2125029;82;21117;-85
2020/12/03 05:55:29;;;;;;;107.50;44.35;;;;;;;-3.75;80.40;99906.56;2119875;82;21510;-84
2020/12/03 05:58:32;;;;;;;91.32;37.93;;;;;;;-3.75;80.51;99903.97;2120456;82;21636;-82
2020/12/03 06:01:33;;;;;;;105.45;45.03;;;;;;;-3.73;80.46;99894.36;2115036;82;21105;-80
2020/12/03 06:04:49;;;;;;;108.30;44.57;;;;;;;-3.72;80.47;99899.08;2121256;82;21136;-80
2020/12/03 06:08:36;;;;;;;101.37;43.60;;;;;;;-3.71;80.53;99891.23;2121839;82;21212;-78
2020/12/03 06:12:06;;;;;;;106.27;45.08;;;;;;;-3.65;80.54;99900.45;2118811;82;21081;-79
2020/12/03 06:15:36;;;;;;;120.60;46.73;;;;;;;-3.63;80.43;99891.67;2124797;82;21160;-80
2020/12/03 06:19:14;;;;;;;110.85;47.35;;;;;;;-3.61;80.42;99887.21;2117175;82;21125;-82
2020/12/03 06:22:46;;;;;;;114.13;46.13;;;;;;;-3.57;80.45;99885.31;2119909;81;21173;-80
2020/12/03 06:26:14;;;;;;;113.55;47.73;;;;;;;-3.58;80.24;99893.16;2120650;82;21121;-78
2020/12/03 06:29:44;;;;;;;125.60;48.87;;;;;;;-3.59;80.24;99885.02;2118042;82;21267;-82
2020/12/03 06:32:51;;;;;;;115.03;45.90;;;;;;;-3.61;80.18;99876.00;2117545;83;21125;-79
2020/12/03 06:36:28;;;;;;;126.17;51.37;;;;;;;-3.65;80.18;99881.83;2120952;82;21105;-79
2020/12/03 06:39:51;;;;;;;131.50;51.57;;;;;;;-3.63;80.26;99885.18;2118717;82;21137;-77
2020/12/03 06:42:58;;;;;;;113.55;45.58;;;;;;;-3.61;80.18;99874.24;2121828;82;21116;-78
2020/12/03 06:46:40;;;;;;;117.17;48.78;;;;;;;-3.59;80.24;99873.34;2117141;82;21110;-79
2020/12/03 06:50:16;;;;;;;110.60;46.73;;;;;;;-3.61;80.24;99866.92;2119317;82;21164;-78
2020/12/03 06:53:29;;;;;;;116.90;46.03;;;;;;;-3.58;80.21;99865.92;2102173;82;21176;-78
2020/12/03 06:56:59;;;;;;;121.47;48.23;;;;;;;-3.55;80.13;99857.52;2113341;82;21164;-80
2020/12/03 07:00:14;;;;;;;122.62;50.67;;;;;;;-3.55;80.13;99855.38;2120711;82;21145;-77
2020/12/03 07:03:56;;;;;;;122.55;50.05;;;;;;;-3.54;79.98;99856.61;2122563;82;21213;-78
2020/12/03 07:07:20;;;;;;;126.02;50.98;;;;;;;-3.51;80.26;99847.83;2118979;82;21173;-79
2020/12/03 07:10:52;;;;;;;119.20;47.03;;;;;;;-3.48;80.13;99846.36;2118300;82;21975;-79
2020/12/03 07:14:15;;;;;;;113.85;48.35;;;;;;;-3.39;80.26;99848.44;2120980;82;21109;-80
2020/12/03 07:18:12;;;;;;;122.30;49.13;;;;;;;-3.32;80.10;99845.03;2117558;82;21137;-82
2020/12/03 07:21:47;;;;;;;101.47;43.28;;;;;;;-3.26;80.20;99846.84;2120206;83;21200;-81
2020/12/03 07:24:50;;;;;;;115.83;49.90;;;;;;;-3.13;80.07;99848.28;2120626;82;21542;-81
2020/12/03 07:28:17;;;;;;;109.50;47.53;;;;;;;-3.10;79.97;99848.09;2121006;82;21058;-80
2020/12/03 07:31:23;;;;;;;127.42;51.25;;;;;;;-3.06;79.70;99852.68;2120015;82;21113;-81
2020/12/03 07:34:30;;;;;;;121.77;50.90;;;;;;;-3.07;79.65;99852.28;2104778;82;21113;-80
2020/12/03 07:37:58;;;;;;;127.82;52.08;;;;;;;-3.07;79.63;99847.95;2114592;82;21174;-81
2020/12/03 07:41:00;;;;;;;125.15;51.77;;;;;;;-3.07;79.66;99856.17;2119763;82;21098;-79
2020/12/03 07:44:22;;;;;;;125.62;51.65;;;;;;;-3.04;79.72;99856.86;2120409;82;21143;-79
2020/12/03 07:47:34;;;;;;;134.45;52.88;;;;;;;-2.98;79.70;99861.70;2115869;82;21520;-80
2020/12/03 07:50:46;;;;;;;122.82;51.83;;;;;;;-2.96;79.38;99862.90;2124070;82;21141;-80
2020/12/03 07:54:13;;;;;;;139.28;54.18;;;;;;;-2.96;79.50;99857.27;2115675;82;21601;-82
2020/12/03 07:57:35;;;;;;;120.13;50.55;;;;;;;-2.91;79.66;99852.27;2107182;82;21142;-82
2020/12/03 08:00:48;;;;;;;126.18;51.18;;;;;;;-2.84;79.55;99861.39;2121105;82;21679;-81
2020/12/03 08:03:50;;;;;;;125.58;51.40;;;;;;;-2.84;79.50;99857.02;2118714;82;21550;-80
2020/12/03 08:07:16;;;;;;;132.10;53.52;;;;;;;-2.78;79.47;99863.63;2107482;82;21172;-80
2020/12/03 08:10:39;;;;;;;125.42;48.63;;;;;;;-2.78;79.47;99854.07;2121880;82;21144;-80
2020/12/03 08:13:42;;;;;;;132.18;52.43;;;;;;;-2.81;79.38;99843.86;2117909;82;21145;-84
2020/12/03 08:16:45;;;;;;;133.07;54.60;;;;;;;-2.79;79.64;99852.41;2107181;81;21295;-81
2020/12/03 08:19:53;;;;;;;134.72;52.78;;;;;;;-2.74;79.63;99856.85;2146483;81;21058;-80
2020/12/03 08:23:00;;;;;;;126.97;52.03;;;;;;;-2.73;79.61;99855.95;2093661;82;21121;-82
2020/12/03 08:26:04;;;;;;;132.78;51.50;;;;;;;-2.70;79.72;99871.81;2137228;82;21595;-79
2020/12/03 08:29:05;;;;;;;125.75;51.83;;;;;;;-2.67;79.76;99869.51;2147241;81;21117;-81
2020/12/03 08:32:06;;;;;;;131.52;51.10;;;;;;;-2.63;79.78;99871.82;2128780;82;21530;-81
2020/12/03 08:35:07;;;;;;;;;;;;;;;-2.61;79.81;99866.55;2135037;82;21112;-81
2020/12/03 08:38:09;;;;;;;134.78;53.15;;;;;;;-2.61;79.72;99858.29;2122884;82;20223;-78
2020/12/03 08:41:12;;;;;;;125.35;49.13;;;;;;;-2.57;79.82;99866.73;2139738;82;21477;-84
2020/12/03 08:44:15;;;;;;;128.15;52.55;;;;;;;-2.53;79.84;99869.54;2147997;82;21090;-82
2020/12/03 08:47:37;;;;;;;122.20;52.93;;;;;;;-2.49;79.72;99877.05;2124151;82;21496;-77
2020/12/03 08:50:39;;;;;;;125.65;50.52;;;;;;;-2.49;79.66;99872.31;2098642;82;21168;-79
2020/12/03 08:53:48;;;;;;;129.42;52.90;;;;;;;-2.50;79.69;99869.36;2151691;81;21105;-79
2020/12/03 09:00:01;;;;;;;87.00;35.30;;;;;;;-2.46;79.63;99859.14;2011106;85;21275;-72
2020/12/03 09:03:05;;;;;;;121.33;50.85;;;;;;;-2.49;79.62;99856.26;1987149;86;21305;-72
2020/12/03 09:06:08;;;;;;;114.28;47.38;;;;;;;-2.54;79.73;99851.80;1957460;87;21155;-72
2020/12/03 09:09:11;;;;;;;120.75;51.73;;;;;;;-2.56;79.85;99856.70;2002759;87;21670;-77
2020/12/03 09:12:26;;;;;;;125.33;51.25;;;;;;;-2.61;79.93;99862.19;2002613;86;21703;-73
2020/12/03 09:15:30;;;;;;;107.83;46.28;;;;;;;-2.62;80.06;99858.36;2012197;86;21240;-71
2020/12/03 09:18:32;;;;;;;125.87;51.83;;;;;;;-2.60;80.08;99841.77;2014077;86;21149;-71
2020/12/03 09:21:34;;;;;;;120.50;49.83;;;;;;;-2.67;80.03;99840.94;2017964;85;21149;-71
2020/12/03 09:24:39;;;;;;;131.57;51.23;;;;;;;-2.74;80.11;99839.97;2024588;86;21271;-72
2020/12/03 09:27:46;;;;;;;125.47;52.85;;;;;;;-2.76;80.14;99837.08;1999895;86;21252;-75
2020/12/03 09:30:49;;;;;;;119.55;49.50;;;;;;;-2.77;80.27;99833.66;1991304;86;21117;-74
2020/12/03 09:33:52;;;;;;;123.05;52.90;;;;;;;-2.79;80.19;99834.23;2003368;86;21677;-75
2020/12/03 09:36:54;;;;;;;124.15;50.43;;;;;;;-2.80;80.37;99833.84;1992514;86;21139;-74
2020/12/03 09:39:56;;;;;;;107.95;42.73;;;;;;;-2.77;80.57;99834.13;2020308;86;21169;-73
2020/12/03 09:42:58;;;;;;;117.53;46.35;;;;;;;-2.76;80.39;99826.70;2023855;86;21256;-72
2020/12/03 09:46:06;;;;;;;119.53;49.08;;;;;;;-2.75;80.51;99822.72;2024553;86;21235;-72
2020/12/03 09:49:09;;;;;;;125.15;50.20;;;;;;;-2.74;80.57;99821.79;2022787;86;21196;-72
2020/12/03 09:52:13;;;;;;;118.30;48.50;;;;;;;-2.75;80.63;99812.34;1977646;87;21223;-73
2020/12/03 09:55:19;;;;;;;119.22;48.90;;;;;;;-2.72;80.70;99798.34;1976803;87;21181;-72
2020/12/03 09:58:21;;;;;;;105.80;46.63;;;;;;;-2.76;80.64;99801.59;2014830;85;21269;-69
2020/12/03 10:01:31;;;;;;;110.03;48.50;;;;;;;-2.76;80.85;99792.50;2049176;85;21698;-69
2020/12/03 10:05:26;;;;;;;105.97;45.10;;;;;;;-2.75;80.97;99777.74;2019735;85;21521;-69
2020/12/03 10:08:55;;;;;;;117.20;47.30;;;;;;;-2.73;81.01;99778.03;2048224;85;21157;-69
2020/12/03 10:12:05;;;;;;;99.95;40.52;;;;;;;-2.69;81.22;99768.75;2048080;85;21642;-72
2020/12/03 10:15:53;;;;;;;110.30;44.70;;;;;;;-2.68;81.33;99754.83;2046086;85;21187;-73
2020/12/03 10:18:59;;;;;;;112.12;44.67;;;;;;;-2.71;81.29;99751.48;2050557;85;21654;-73
2020/12/03 10:22:05;;;;;;;106.27;47.62;;;;;;;-2.79;81.42;99738.58;2018829;85;21179;-71
2020/12/03 10:25:18;;;;;;;119.37;48.50;;;;;;;-2.79;81.61;99735.55;2047666;85;21158;-70
2020/12/03 10:28:31;;;;;;;102.65;43.28;;;;;;;-2.78;81.76;99733.78;2046066;85;21700;-72
2020/12/03 10:31:33;;;;;;;97.72;42.60;;;;;;;-2.77;81.90;99725.88;2046756;85;21128;-70
2020/12/03 10:34:42;;;;;;;114.35;46.33;;;;;;;-2.71;81.82;99724.20;2018020;85;21231;-72
2020/12/03 10:37:55;;;;;;;110.22;45.25;;;;;;;-2.72;81.74;99712.63;2046959;85;22415;-74
2020/12/03 10:40:58;;;;;;;108.67;46.73;;;;;;;-2.72;81.81;99703.55;2049930;85;21614;-72
2020/12/03 10:44:04;;;;;;;114.80;48.58;;;;;;;-2.66;81.97;99702.34;2049229;85;21207;-74
2020/12/03 10:47:10;;;;;;;106.95;44.73;;;;;;;-2.60;82.04;99696.30;2049717;85;21704;-72
2020/12/03 10:50:16;;;;;;;105.85;45.48;;;;;;;-2.54;82.10;99680.80;2046748;85;21266;-76
2020/12/03 10:53:27;;;;;;;108.83;45.88;;;;;;;-2.47;82.13;99668.28;2046241;85;21203;-74
2020/12/03 10:56:34;;;;;;;110.88;46.85;;;;;;;-2.37;82.22;99671.48;2046302;85;21268;-76
2020/12/03 10:59:38;;;;;;;94.45;41.73;;;;;;;-2.28;82.22;99651.89;2002045;85;21139;-72
2020/12/03 11:02:42;;;;;;;109.60;44.93;;;;;;;-2.19;82.18;99647.90;1970974;88;21166;-74
2020/12/03 11:05:45;;;;;;;104.47;41.48;;;;;;;-2.05;82.33;99647.86;1975334;87;21276;-72
2020/12/03 11:08:49;;;;;;;109.45;44.48;;;;;;;-1.98;82.04;99636.58;1976641;88;21219;-74
2020/12/03 11:11:51;;;;;;;97.92;42.78;;;;;;;-1.95;81.97;99633.31;1969492;88;21701;-74
2020/12/03 11:14:52;;;;;;;114.95;47.10;;;;;;;-1.96;81.86;99629.53;1973412;88;21196;-75
2020/12/03 11:18:11;;;;;;;111.28;45.43;;;;;;;-1.98;81.88;99630.08;1956615;88;21580;-77
2020/12/03 11:21:23;;;;;;;113.50;44.65;;;;;;;-1.95;81.89;99625.51;1998961;86;21209;-77
2020/12/03 11:24:36;;;;;;;106.72;46.05;;;;;;;-1.92;81.83;99617.50;1970736;88;21146;-74
2020/12/03 11:27:40;;;;;;;101.18;37.98;;;;;;;-1.90;81.93;99620.02;1975647;88;21122;-76
2020/12/03 11:30:47;;;;;;;102.22;42.50;;;;;;;-1.84;81.88;99613.11;1971930;88;21172;-75
2020/12/03 11:33:51;;;;;;;101.70;44.08;;;;;;;-1.87;81.91;99611.55;1970762;88;21179;-75
2020/12/03 11:36:56;;;;;;;106.40;44.45;;;;;;;-1.87;81.86;99595.94;1974946;88;21197;-75
2020/12/03 11:40:06;;;;;;;107.03;46.00;;;;;;;-1.89;81.88;99599.10;1955842;88;21221;-77
2020/12/03 11:49:38;;;;;;;108.52;45.60;;;;;;;-1.73;81.99;99588.53;1971496;88;21657;-77
2020/12/03 11:52:39;;;;;;;107.00;43.02;;;;;;;-1.71;81.96;99583.25;1956355;88;21118;-75
2020/12/03 11:55:41;;;;;;;112.68;46.48;;;;;;;-1.72;81.87;99570.68;1972189;88;21733;-73
2020/12/03 11:58:42;;;;;;;109.45;47.93;;;;;;;-1.69;81.98;99569.64;1988967;86;21160;-75
2020/12/03 12:01:59;;;;;;;112.47;46.42;;;;;;;-1.61;82.01;99571.27;2024006;86;21167;-73
2020/12/03 12:05:07;;;;;;;101.35;45.05;;;;;;;-1.52;82.06;99549.00;2003389;86;21563;-69
2020/12/03 12:08:24;;;;;;;103.20;44.18;;;;;;;-1.51;81.78;99546.31;2025116;86;21211;-70
2020/12/03 12:11:31;;;;;;;104.32;44.88;;;;;;;-1.50;81.82;99550.56;2024503;86;21137;-73
2020/12/03 12:14:28;;;;;;;104.12;44.35;;;;;;;-1.44;81.94;99553.22;2021062;86;21208;-70
2020/12/03 12:17:36;;;;;;;96.70;42.03;;;;;;;-1.45;81.78;99520.34;2024606;86;21134;-70
2020/12/03 12:20:37;;;;;;;92.30;39.13;;;;;;;-1.42;81.97;99514.45;2025791;86;21153;-69
2020/12/03 12:23:38;;;;;;;99.03;41.23;;;;;;;-1.36;81.94;99520.53;2022597;86;21214;-70
2020/12/03 12:26:40;;;;;;;97.72;42.13;;;;;;;-1.30;81.98;99522.34;2025213;86;21615;-67
2020/12/03 12:29:43;;;;;;;90.47;37.65;;;;;;;-1.20;82.06;99509.90;2022950;86;21196;-69
2020/12/03 12:32:45;;;;;;;102.38;44.10;;;;;;;-1.08;81.84;99489.97;2024341;86;21243;-69
2020/12/03 12:35:46;;;;;;;83.25;37.55;;;;;;;-0.94;82.03;99483.80;2022666;86;21092;-71
2020/12/03 12:38:48;;;;;;;84.62;38.13;;;;;;;-0.81;81.85;99490.28;2025354;86;21209;-72
2020/12/03 12:42:02;;;;;;;91.42;38.42;;;;;;;-0.74;81.78;99494.09;2022134;86;21216;-82
2020/12/03 12:45:04;;;;;;;91.35;37.10;;;;;;;-0.65;81.71;99493.42;2022592;86;21235;-74
2020/12/03 12:48:05;;;;;;;74.12;32.17;;;;;;;-0.58;81.67;99472.50;2025910;86;21768;-72
2020/12/03 12:51:07;;;;;;;82.97;36.13;;;;;;;-0.52;81.63;99476.44;2021679;86;21150;-71
2020/12/03 12:54:09;;;;;;;85.55;37.73;;;;;;;-0.53;81.46;99478.22;2023906;86;21670;-72
2020/12/03 12:57:11;;;;;;;79.80;35.03;;;;;;;-0.56;81.45;99455.47;2024323;86;21263;-73
2020/12/03 13:00:12;;;;;;;85.87;37.58;;;;;;;-0.51;81.63;99445.06;2044071;85;21209;-72
2020/12/03 13:03:14;;;;;;;77.65;34.63;;;;;;;-0.48;81.56;99455.27;2051583;85;21233;-74
2020/12/03 13:06:16;;;;;;;73.52;34.67;;;;;;;-0.43;81.53;99458.82;2054164;85;21602;-72
2020/12/03 13:09:17;;;;;;;73.00;33.70;;;;;;;-0.31;81.58;99454.47;2051132;85;21210;-72
2020/12/03 13:12:21;;;;;;;65.25;30.12;;;;;;;-0.13;81.50;99462.72;2051068;85;21183;-72
2020/12/03 13:15:22;;;;;;;68.00;31.55;;;;;;;-0.04;81.20;99458.94;2051789;85;21210;-71
2020/12/03 13:18:24;;;;;;;69.97;28.52;;;;;;;-0.02;80.74;99457.53;2054081;85;21134;-72
2020/12/03 13:21:25;;;;;;;70.30;31.05;;;;;;;0.01;80.71;99449.95;2054979;85;21204;-74
2020/12/03 13:24:30;;;;;;;58.45;28.57;;;;;;;0.01;80.24;99461.21;2051246;85;21130;-73
2020/12/03 13:27:33;;;;;;;58.05;27.52;;;;;;;0.03;80.48;99464.55;2052051;85;21194;-72
2020/12/03 13:30:36;;;;;;;63.13;28.95;;;;;;;0.01;80.16;99462.52;2030932;85;21748;-71
2020/12/03 13:33:38;;;;;;;59.55;28.67;;;;;;;-0.03;80.17;99464.98;2051812;85;21178;-72
2020/12/03 13:36:39;;;;;;;66.90;30.48;;;;;;;-0.06;80.25;99462.16;2052557;85;21227;-72
2020/12/03 13:39:41;;;;;;;52.10;25.35;;;;;;;-0.12;79.68;99451.33;2054533;85;21159;-72
2020/12/03 13:42:42;;;;;;;54.42;26.25;;;;;;;-0.15;80.06;99444.56;2049424;85;21130;-73
2020/12/03 13:45:46;;;;;;;62.98;29.60;;;;;;;-0.14;80.07;99438.88;2052913;85;21218;-72
2020/12/03 13:48:47;;;;;;;65.75;29.35;;;;;;;-0.16;80.13;99440.31;2053276;85;21167;-72
2020/12/03 13:51:49;;;;;;;67.12;28.55;;;;;;;-0.17;80.10;99444.32;2049852;85;21683;-73
2020/12/03 13:54:50;;;;;;;66.10;29.80;;;;;;;-0.21;79.94;99437.20;2053624;85;21131;-72
2020/12/03 13:57:53;;;;;;;62.35;29.57;;;;;;;-0.27;79.92;99435.06;2053573;85;21174;-71
2020/12/03 14:00:55;;;;;;;61.50;27.13;;;;;;;-0.30;79.98;99427.00;2020463;85;21204;-71
2020/12/03 14:03:57;;;;;;;66.40;30.60;;;;;;;-0.33;79.96;99439.44;2015501;86;21187;-71
2020/12/03 14:06:58;;;;;;;59.73;26.33;;;;;;;-0.36;79.94;99440.49;2015100;86;21153;-71
2020/12/03 14:10:00;;;;;;;65.00;30.30;;;;;;;-0.34;80.01;99445.58;2015073;86;21133;-71
2020/12/03 14:13:02;;;;;;;62.03;29.00;;;;;;;-0.34;80.02;99433.84;2014113;86;21221;-72
2020/12/03 14:16:03;;;;;;;52.85;24.45;;;;;;;-0.37;80.03;99428.38;2015768;86;21226;-71
2020/12/03 14:19:05;;;;;;;66.57;29.85;;;;;;;-0.40;80.00;99414.27;2014269;86;21191;-72
2020/12/03 14:22:07;;;;;;;61.08;28.42;;;;;;;-0.42;80.14;99407.06;2015985;86;21183;-74
2020/12/03 14:25:08;;;;;;;60.73;27.67;;;;;;;-0.42;80.17;99397.09;2013570;85;21163;-71